sensor_id;sensor_type;location;lat;lon;timestamp;temperature;humidity
10901;DHT22;5503;53.208;10.392;2023-02-18T00:00:28;8.30;1.00
10901;DHT22;5503;53.208;10.392;2023-02-18T00:02:55;8.20;1.00
10901;DHT22;5503;53.208;10.392;2023-02-18T00:05:24;8.10;1.00
10901;DHT22;5503;53.208;10.392;2023-02-18T00:07:54;8.10;1.00
10901;DHT22;5503;53.208;10.392;2023-02-18T00:10:23;8.10;1.00
10901;DHT22;5503;53.208;10.392;2023-02-18T00:12:50;8.10;1.00
10901;DHT22;5503;53.208;10.392;2023-02-18T00:15:17;8.10;1.00
10901;DHT22;5503;53.208;10.392;2023-02-18T00:17:44;8.00;1.00
10901;DHT22;5503;53.208;10.392;2023-02-18T00:20:11;8.00;1.00
10901;DHT22;5503;53.208;10.392;2023-02-18T00:22:40;8.00;1.00
10901;DHT22;5503;53.208;10.392;2023-02-18T00:25:07;8.00;1.00
10901;DHT22;5503;53.208;10.392;2023-02-18T00:27:34;7.90;1.00
10901;DHT22;5503;53.208;10.392;2023-02-18T00:30:01;8.00;1.00
10901;DHT22;5503;53.208;10.392;2023-02-18T00:32:29;7.90;1.00
10901;DHT22;5503;53.208;10.392;2023-02-18T00:34:56;7.90;1.00
10901;DHT22;5503;53.208;10.392;2023-02-18T00:37:23;7.90;1.00
10901;DHT22;5503;53.208;10.392;2023-02-18T00:39:51;8.00;1.00
10901;DHT22;5503;53.208;10.392;2023-02-18T00:42:18;7.90;1.00
10901;DHT22;5503;53.208;10.392;2023-02-18T00:44:45;7.80;1.00
10901;DHT22;5503;53.208;10.392;2023-02-18T00:47:12;7.70;1.00
10901;DHT22;5503;53.208;10.392;2023-02-18T00:49:39;7.80;1.00
10901;DHT22;5503;53.208;10.392;2023-02-18T00:52:06;7.70;1.00
10901;DHT22;5503;53.208;10.392;2023-02-18T00:54:33;7.70;1.00
10901;DHT22;5503;53.208;10.392;2023-02-18T00:57:01;8.00;1.00
10901;DHT22;5503;53.208;10.392;2023-02-18T00:59:28;7.90;1.00
10901;DHT22;5503;53.208;10.392;2023-02-18T01:01:55;7.70;1.00
10901;DHT22;5503;53.208;10.392;2023-02-18T01:04:21;7.50;1.00
10901;DHT22;5503;53.208;10.392;2023-02-18T01:06:48;7.50;1.00
10901;DHT22;5503;53.208;10.392;2023-02-18T01:09:15;7.70;1.00
10901;DHT22;5503;53.208;10.392;2023-02-18T01:11:42;7.40;1.00
10901;DHT22;5503;53.208;10.392;2023-02-18T01:14:10;9.00;1.00
10901;DHT22;5503;53.208;10.392;2023-02-18T01:16:37;7.50;1.00
10901;DHT22;5503;53.208;10.392;2023-02-18T01:19:04;7.40;1.00
10901;DHT22;5503;53.208;10.392;2023-02-18T01:21:31;7.40;1.00
10901;DHT22;5503;53.208;10.392;2023-02-18T01:23:58;7.50;1.00
10901;DHT22;5503;53.208;10.392;2023-02-18T01:26:25;7.40;1.00
10901;DHT22;5503;53.208;10.392;2023-02-18T01:28:51;7.30;2.20
10901;DHT22;5503;53.208;10.392;2023-02-18T01:31:20;7.30;1.50
10901;DHT22;5503;53.208;10.392;2023-02-18T01:33:46;7.30;1.00
10901;DHT22;5503;53.208;10.392;2023-02-18T01:36:13;7.20;5.50
10901;DHT22;5503;53.208;10.392;2023-02-18T01:38:40;7.20;5.40
10901;DHT22;5503;53.208;10.392;2023-02-18T01:41:07;7.20;3.50
10901;DHT22;5503;53.208;10.392;2023-02-18T01:43:35;7.30;5.20
10901;DHT22;5503;53.208;10.392;2023-02-18T01:46:12;7.40;4.00
10901;DHT22;5503;53.208;10.392;2023-02-18T01:48:43;7.20;9.50
10901;DHT22;5503;53.208;10.392;2023-02-18T01:51:13;7.30;7.20
10901;DHT22;5503;53.208;10.392;2023-02-18T01:53:47;7.20;8.10
10901;DHT22;5503;53.208;10.392;2023-02-18T01:56:19;7.40;9.40
10901;DHT22;5503;53.208;10.392;2023-02-18T01:58:49;7.30;7.10
10901;DHT22;5503;53.208;10.392;2023-02-18T02:01:16;7.40;6.50
10901;DHT22;5503;53.208;10.392;2023-02-18T02:03:44;7.50;4.30
10901;DHT22;5503;53.208;10.392;2023-02-18T02:06:16;7.50;4.70
10901;DHT22;5503;53.208;10.392;2023-02-18T02:08:44;7.40;4.30
10901;DHT22;5503;53.208;10.392;2023-02-18T02:14:12;7.30;11.30
10901;DHT22;5503;53.208;10.392;2023-02-18T02:16:46;7.30;8.90
10901;DHT22;5503;53.208;10.392;2023-02-18T02:19:33;7.20;12.20
10901;DHT22;5503;53.208;10.392;2023-02-18T02:22:52;7.40;4.00
10901;DHT22;5503;53.208;10.392;2023-02-18T02:25:44;7.50;1.00
10901;DHT22;5503;53.208;10.392;2023-02-18T02:28:33;7.50;1.50
10901;DHT22;5503;53.208;10.392;2023-02-18T02:31:33;7.40;5.50
10901;DHT22;5503;53.208;10.392;2023-02-18T02:34:38;7.40;3.20
10901;DHT22;5503;53.208;10.392;2023-02-18T02:37:13;8.50;1.90
10901;DHT22;5503;53.208;10.392;2023-02-18T02:39:52;7.50;3.40
10901;DHT22;5503;53.208;10.392;2023-02-18T02:42:28;7.50;1.00
10901;DHT22;5503;53.208;10.392;2023-02-18T02:45:03;7.60;1.00
10901;DHT22;5503;53.208;10.392;2023-02-18T02:47:36;7.70;1.00
10901;DHT22;5503;53.208;10.392;2023-02-18T02:50:11;7.80;1.00
10901;DHT22;5503;53.208;10.392;2023-02-18T02:52:43;7.80;1.00
10901;DHT22;5503;53.208;10.392;2023-02-18T02:55:12;7.80;1.00
10901;DHT22;5503;53.208;10.392;2023-02-18T02:57:49;7.80;1.00
10901;DHT22;5503;53.208;10.392;2023-02-18T03:00:19;7.80;1.00
10901;DHT22;5503;53.208;10.392;2023-02-18T03:03:28;7.80;1.00
10901;DHT22;5503;53.208;10.392;2023-02-18T03:06:19;7.90;1.00
10901;DHT22;5503;53.208;10.392;2023-02-18T03:08:55;8.00;1.00
10901;DHT22;5503;53.208;10.392;2023-02-18T03:11:29;8.00;1.00
10901;DHT22;5503;53.208;10.392;2023-02-18T03:14:07;8.10;1.00
10901;DHT22;5503;53.208;10.392;2023-02-18T03:16:40;8.20;1.00
10901;DHT22;5503;53.208;10.392;2023-02-18T03:19:14;8.20;1.00
10901;DHT22;5503;53.208;10.392;2023-02-18T03:21:51;8.30;1.00
10901;DHT22;5503;53.208;10.392;2023-02-18T03:24:24;8.20;1.00
10901;DHT22;5503;53.208;10.392;2023-02-18T03:26:55;8.20;1.00
10901;DHT22;5503;53.208;10.392;2023-02-18T03:29:24;8.20;1.00
10901;DHT22;5503;53.208;10.392;2023-02-18T03:31:54;8.20;1.00
10901;DHT22;5503;53.208;10.392;2023-02-18T03:34:27;8.10;1.00
10901;DHT22;5503;53.208;10.392;2023-02-18T03:36:57;8.20;1.00
10901;DHT22;5503;53.208;10.392;2023-02-18T03:39:27;8.20;1.00
10901;DHT22;5503;53.208;10.392;2023-02-18T03:41:55;8.30;1.00
10901;DHT22;5503;53.208;10.392;2023-02-18T03:44:23;9.60;1.00
10901;DHT22;5503;53.208;10.392;2023-02-18T03:46:51;8.30;1.00
10901;DHT22;5503;53.208;10.392;2023-02-18T03:49:18;8.40;1.00
10901;DHT22;5503;53.208;10.392;2023-02-18T03:51:45;8.40;1.00
10901;DHT22;5503;53.208;10.392;2023-02-18T03:54:14;8.90;1.00
10901;DHT22;5503;53.208;10.392;2023-02-18T03:56:42;8.40;1.00
10901;DHT22;5503;53.208;10.392;2023-02-18T03:59:09;8.50;1.00
10901;DHT22;5503;53.208;10.392;2023-02-18T04:01:37;8.40;1.00
10901;DHT22;5503;53.208;10.392;2023-02-18T04:04:04;8.40;1.00
10901;DHT22;5503;53.208;10.392;2023-02-18T04:06:31;8.40;1.00
10901;DHT22;5503;53.208;10.392;2023-02-18T04:08:58;8.50;1.00
10901;DHT22;5503;53.208;10.392;2023-02-18T04:11:27;8.50;1.00
10901;DHT22;5503;53.208;10.392;2023-02-18T04:13:54;8.40;1.00
10901;DHT22;5503;53.208;10.392;2023-02-18T04:16:21;8.40;1.00
10901;DHT22;5503;53.208;10.392;2023-02-18T04:18:48;8.50;1.00
10901;DHT22;5503;53.208;10.392;2023-02-18T04:21:15;8.60;1.00
10901;DHT22;5503;53.208;10.392;2023-02-18T04:23:42;8.60;1.00
10901;DHT22;5503;53.208;10.392;2023-02-18T04:26:09;8.60;1.00
10901;DHT22;5503;53.208;10.392;2023-02-18T04:28:37;8.50;1.00
10901;DHT22;5503;53.208;10.392;2023-02-18T04:31:04;8.40;1.00
10901;DHT22;5503;53.208;10.392;2023-02-18T04:33:31;8.40;1.00
10901;DHT22;5503;53.208;10.392;2023-02-18T04:35:58;8.40;1.00
10901;DHT22;5503;53.208;10.392;2023-02-18T04:38:25;8.40;1.00
10901;DHT22;5503;53.208;10.392;2023-02-18T04:40:52;8.40;1.00
10901;DHT22;5503;53.208;10.392;2023-02-18T04:43:19;8.50;1.00
10901;DHT22;5503;53.208;10.392;2023-02-18T04:45:48;8.60;1.00
10901;DHT22;5503;53.208;10.392;2023-02-18T04:48:15;8.60;1.00
10901;DHT22;5503;53.208;10.392;2023-02-18T04:50:43;8.70;1.00
10901;DHT22;5503;53.208;10.392;2023-02-18T04:53:10;8.80;1.00
10901;DHT22;5503;53.208;10.392;2023-02-18T04:55:37;8.90;1.00
10901;DHT22;5503;53.208;10.392;2023-02-18T04:58:04;8.90;1.00
10901;DHT22;5503;53.208;10.392;2023-02-18T05:00:31;8.80;1.00
10901;DHT22;5503;53.208;10.392;2023-02-18T05:02:59;8.70;1.00
10901;DHT22;5503;53.208;10.392;2023-02-18T05:05:26;9.70;1.00
10901;DHT22;5503;53.208;10.392;2023-02-18T05:07:53;8.60;1.00
10901;DHT22;5503;53.208;10.392;2023-02-18T05:10:20;8.70;1.00
10901;DHT22;5503;53.208;10.392;2023-02-18T05:12:47;8.60;1.00
10901;DHT22;5503;53.208;10.392;2023-02-18T05:15:14;9.30;1.00
10901;DHT22;5503;53.208;10.392;2023-02-18T05:17:41;8.50;1.00
10901;DHT22;5503;53.208;10.392;2023-02-18T05:20:11;8.50;1.00
10901;DHT22;5503;53.208;10.392;2023-02-18T05:22:38;8.50;1.00
10901;DHT22;5503;53.208;10.392;2023-02-18T05:25:06;8.50;1.00
10901;DHT22;5503;53.208;10.392;2023-02-18T05:27:33;8.60;1.00
10901;DHT22;5503;53.208;10.392;2023-02-18T05:30:00;8.60;1.00
10901;DHT22;5503;53.208;10.392;2023-02-18T05:32:27;8.60;1.00
10901;DHT22;5503;53.208;10.392;2023-02-18T05:34:54;8.60;1.00
10901;DHT22;5503;53.208;10.392;2023-02-18T05:37:22;8.70;1.00
10901;DHT22;5503;53.208;10.392;2023-02-18T05:39:49;9.70;1.00
10901;DHT22;5503;53.208;10.392;2023-02-18T05:42:16;8.90;1.00
10901;DHT22;5503;53.208;10.392;2023-02-18T05:44:43;9.00;1.00
10901;DHT22;5503;53.208;10.392;2023-02-18T05:47:11;8.90;1.00
10901;DHT22;5503;53.208;10.392;2023-02-18T05:49:40;10.10;1.00
10901;DHT22;5503;53.208;10.392;2023-02-18T05:52:07;10.10;1.00
10901;DHT22;5503;53.208;10.392;2023-02-18T05:54:37;9.00;1.00
10901;DHT22;5503;53.208;10.392;2023-02-18T05:57:04;8.90;1.00
10901;DHT22;5503;53.208;10.392;2023-02-18T05:59:31;9.00;1.00
10901;DHT22;5503;53.208;10.392;2023-02-18T06:01:58;9.00;1.00
10901;DHT22;5503;53.208;10.392;2023-02-18T06:04:26;9.20;1.00
10901;DHT22;5503;53.208;10.392;2023-02-18T06:06:53;9.10;1.00
10901;DHT22;5503;53.208;10.392;2023-02-18T06:09:20;9.10;1.00
10901;DHT22;5503;53.208;10.392;2023-02-18T06:11:49;9.10;1.00
10901;DHT22;5503;53.208;10.392;2023-02-18T06:14:16;9.20;1.00
10901;DHT22;5503;53.208;10.392;2023-02-18T06:16:43;9.10;1.00
10901;DHT22;5503;53.208;10.392;2023-02-18T06:19:10;9.00;1.00
10901;DHT22;5503;53.208;10.392;2023-02-18T06:21:37;8.90;1.00
10901;DHT22;5503;53.208;10.392;2023-02-18T06:24:04;8.90;1.00
10901;DHT22;5503;53.208;10.392;2023-02-18T06:26:31;8.80;1.00
10901;DHT22;5503;53.208;10.392;2023-02-18T06:29:00;8.60;1.00
10901;DHT22;5503;53.208;10.392;2023-02-18T06:31:27;8.70;1.00
10901;DHT22;5503;53.208;10.392;2023-02-18T06:33:54;8.70;1.00
10901;DHT22;5503;53.208;10.392;2023-02-18T06:36:21;8.70;1.00
10901;DHT22;5503;53.208;10.392;2023-02-18T06:38:48;8.50;1.00
10901;DHT22;5503;53.208;10.392;2023-02-18T06:41:15;8.80;1.00
10901;DHT22;5503;53.208;10.392;2023-02-18T06:43:42;8.60;1.00
10901;DHT22;5503;53.208;10.392;2023-02-18T06:46:10;8.50;1.00
10901;DHT22;5503;53.208;10.392;2023-02-18T06:48:37;9.20;3.00
10901;DHT22;5503;53.208;10.392;2023-02-18T06:51:04;8.60;3.70
10901;DHT22;5503;53.208;10.392;2023-02-18T06:53:31;8.40;4.40
10901;DHT22;5503;53.208;10.392;2023-02-18T06:55:58;8.60;3.40
10901;DHT22;5503;53.208;10.392;2023-02-18T06:58:25;9.50;5.50
10901;DHT22;5503;53.208;10.392;2023-02-18T07:00:52;8.60;6.20
10901;DHT22;5503;53.208;10.392;2023-02-18T07:03:21;8.60;9.40
10901;DHT22;5503;53.208;10.392;2023-02-18T07:05:48;8.60;8.20
10901;DHT22;5503;53.208;10.392;2023-02-18T07:08:15;8.70;11.70
10901;DHT22;5503;53.208;10.392;2023-02-18T07:10:42;8.60;14.40
10901;DHT22;5503;53.208;10.392;2023-02-18T07:13:09;8.60;18.20
10901;DHT22;5503;53.208;10.392;2023-02-18T07:15:36;8.60;20.90
10901;DHT22;5503;53.208;10.392;2023-02-18T07:18:03;8.50;20.70
10901;DHT22;5503;53.208;10.392;2023-02-18T07:20:32;8.60;19.20
10901;DHT22;5503;53.208;10.392;2023-02-18T07:22:59;8.70;20.00
10901;DHT22;5503;53.208;10.392;2023-02-18T07:25:26;8.60;20.30
10901;DHT22;5503;53.208;10.392;2023-02-18T07:27:53;8.70;22.00
10901;DHT22;5503;53.208;10.392;2023-02-18T07:30:20;8.70;22.90
10901;DHT22;5503;53.208;10.392;2023-02-18T07:32:47;7.60;21.70
10901;DHT22;5503;53.208;10.392;2023-02-18T07:35:15;8.70;21.60
10901;DHT22;5503;53.208;10.392;2023-02-18T07:37:45;8.60;28.40
10901;DHT22;5503;53.208;10.392;2023-02-18T07:40:13;8.60;30.00
10901;DHT22;5503;53.208;10.392;2023-02-18T07:42:41;8.70;26.80
10901;DHT22;5503;53.208;10.392;2023-02-18T07:45:08;8.70;27.60
10901;DHT22;5503;53.208;10.392;2023-02-18T07:47:36;8.80;26.00
10901;DHT22;5503;53.208;10.392;2023-02-18T07:50:03;8.90;25.70
10901;DHT22;5503;53.208;10.392;2023-02-18T07:52:31;8.90;27.70
10901;DHT22;5503;53.208;10.392;2023-02-18T07:54:59;9.00;25.70
10901;DHT22;5503;53.208;10.392;2023-02-18T07:57:26;9.10;24.90
10901;DHT22;5503;53.208;10.392;2023-02-18T07:59:53;9.20;21.60
10901;DHT22;5503;53.208;10.392;2023-02-18T08:02:22;9.00;26.50
10901;DHT22;5503;53.208;10.392;2023-02-18T08:04:49;8.90;33.30
10901;DHT22;5503;53.208;10.392;2023-02-18T08:07:19;10.30;53.90
10901;DHT22;5503;53.208;10.392;2023-02-18T08:09:47;8.10;70.80
10901;DHT22;5503;53.208;10.392;2023-02-18T08:12:16;8.00;77.40
10901;DHT22;5503;53.208;10.392;2023-02-18T08:14:43;8.00;81.50
10901;DHT22;5503;53.208;10.392;2023-02-18T08:17:10;8.00;81.20
10901;DHT22;5503;53.208;10.392;2023-02-18T08:19:37;8.10;80.70
10901;DHT22;5503;53.208;10.392;2023-02-18T08:22:04;8.00;88.00
10901;DHT22;5503;53.208;10.392;2023-02-18T08:24:31;8.20;83.80
10901;DHT22;5503;53.208;10.392;2023-02-18T08:26:58;8.20;82.20
10901;DHT22;5503;53.208;10.392;2023-02-18T08:29:26;8.20;78.60
10901;DHT22;5503;53.208;10.392;2023-02-18T08:31:54;8.70;74.30
10901;DHT22;5503;53.208;10.392;2023-02-18T08:34:22;10.20;70.90
10901;DHT22;5503;53.208;10.392;2023-02-18T08:36:49;8.80;65.00
10901;DHT22;5503;53.208;10.392;2023-02-18T08:39:15;8.00;52.20
10901;DHT22;5503;53.208;10.392;2023-02-18T08:41:43;8.90;53.10
10901;DHT22;5503;53.208;10.392;2023-02-18T08:44:09;9.00;50.20
10901;DHT22;5503;53.208;10.392;2023-02-18T08:46:38;9.10;45.10
10901;DHT22;5503;53.208;10.392;2023-02-18T08:49:05;9.00;46.20
10901;DHT22;5503;53.208;10.392;2023-02-18T08:51:32;8.80;54.90
10901;DHT22;5503;53.208;10.392;2023-02-18T08:53:59;8.60;66.40
10901;DHT22;5503;53.208;10.392;2023-02-18T08:56:26;8.50;74.00
10901;DHT22;5503;53.208;10.392;2023-02-18T08:58:53;8.50;74.90
10901;DHT22;5503;53.208;10.392;2023-02-18T09:01:20;8.60;74.10
10901;DHT22;5503;53.208;10.392;2023-02-18T09:03:49;8.70;75.10
10901;DHT22;5503;53.208;10.392;2023-02-18T09:06:16;8.60;81.30
10901;DHT22;5503;53.208;10.392;2023-02-18T09:08:43;8.60;82.40
10901;DHT22;5503;53.208;10.392;2023-02-18T09:11:10;8.60;87.00
10901;DHT22;5503;53.208;10.392;2023-02-18T09:13:38;8.30;95.20
10901;DHT22;5503;53.208;10.392;2023-02-18T09:16:07;8.30;99.00
10901;DHT22;5503;53.208;10.392;2023-02-18T09:18:34;8.40;96.00
10901;DHT22;5503;53.208;10.392;2023-02-18T09:21:06;8.40;96.10
10901;DHT22;5503;53.208;10.392;2023-02-18T09:23:34;8.50;96.40
10901;DHT22;5503;53.208;10.392;2023-02-18T09:26:04;8.80;92.40
10901;DHT22;5503;53.208;10.392;2023-02-18T09:28:31;8.90;91.00
10901;DHT22;5503;53.208;10.392;2023-02-18T09:31:03;8.90;88.70
10901;DHT22;5503;53.208;10.392;2023-02-18T09:33:30;8.90;90.00
10901;DHT22;5503;53.208;10.392;2023-02-18T09:35:57;9.10;84.20
10901;DHT22;5503;53.208;10.392;2023-02-18T09:38:28;9.20;78.20
10901;DHT22;5503;53.208;10.392;2023-02-18T09:40:56;9.20;77.80
10901;DHT22;5503;53.208;10.392;2023-02-18T09:43:29;9.20;74.90
10901;DHT22;5503;53.208;10.392;2023-02-18T09:45:58;9.30;75.50
10901;DHT22;5503;53.208;10.392;2023-02-18T09:48:28;9.40;72.90
10901;DHT22;5503;53.208;10.392;2023-02-18T09:50:57;9.00;90.30
10901;DHT22;5503;53.208;10.392;2023-02-18T09:53:25;9.00;96.20
10901;DHT22;5503;53.208;10.392;2023-02-18T09:55:55;9.20;93.20
10901;DHT22;5503;53.208;10.392;2023-02-18T09:58:25;9.20;93.70
10901;DHT22;5503;53.208;10.392;2023-02-18T10:01:00;9.30;94.80
10901;DHT22;5503;53.208;10.392;2023-02-18T10:03:29;9.50;90.00
10901;DHT22;5503;53.208;10.392;2023-02-18T10:06:00;9.60;90.60
10901;DHT22;5503;53.208;10.392;2023-02-18T10:08:30;9.70;93.10
10901;DHT22;5503;53.208;10.392;2023-02-18T10:11:00;9.70;97.80
10901;DHT22;5503;53.208;10.392;2023-02-18T10:13:30;9.70;99.90
10901;DHT22;5503;53.208;10.392;2023-02-18T10:15:58;9.70;99.90
10901;DHT22;5503;53.208;10.392;2023-02-18T10:18:28;9.90;99.90
10901;DHT22;5503;53.208;10.392;2023-02-18T10:21:02;10.90;99.90
10901;DHT22;5503;53.208;10.392;2023-02-18T10:23:31;9.90;99.90
10901;DHT22;5503;53.208;10.392;2023-02-18T10:26:02;10.00;99.90
10901;DHT22;5503;53.208;10.392;2023-02-18T10:28:31;10.10;99.90
10901;DHT22;5503;53.208;10.392;2023-02-18T10:31:01;10.70;99.90
10901;DHT22;5503;53.208;10.392;2023-02-18T10:33:34;10.40;99.90
10901;DHT22;5503;53.208;10.392;2023-02-18T10:36:19;10.50;99.90
10901;DHT22;5503;53.208;10.392;2023-02-18T10:39:01;10.60;99.90
10901;DHT22;5503;53.208;10.392;2023-02-18T10:41:40;10.50;99.90
10901;DHT22;5503;53.208;10.392;2023-02-18T10:44:14;10.60;99.90
10901;DHT22;5503;53.208;10.392;2023-02-18T10:46:48;10.60;99.90
10901;DHT22;5503;53.208;10.392;2023-02-18T10:49:33;12.70;99.90
10901;DHT22;5503;53.208;10.392;2023-02-18T10:52:08;11.50;99.90
10901;DHT22;5503;53.208;10.392;2023-02-18T10:54:51;10.90;99.90
10901;DHT22;5503;53.208;10.392;2023-02-18T10:57:22;11.00;99.90
10901;DHT22;5503;53.208;10.392;2023-02-18T11:00:01;12.60;99.90
10901;DHT22;5503;53.208;10.392;2023-02-18T11:02:35;11.00;99.90
10901;DHT22;5503;53.208;10.392;2023-02-18T11:05:15;11.10;99.90
10901;DHT22;5503;53.208;10.392;2023-02-18T11:07:46;11.30;99.90
10901;DHT22;5503;53.208;10.392;2023-02-18T11:10:17;11.30;99.90
10901;DHT22;5503;53.208;10.392;2023-02-18T11:12:49;11.30;99.90
10901;DHT22;5503;53.208;10.392;2023-02-18T11:15:20;11.20;99.90
10901;DHT22;5503;53.208;10.392;2023-02-18T11:17:50;11.40;99.90
10901;DHT22;5503;53.208;10.392;2023-02-18T11:20:24;11.50;99.90
10901;DHT22;5503;53.208;10.392;2023-02-18T11:22:56;12.20;99.90
10901;DHT22;5503;53.208;10.392;2023-02-18T11:25:25;11.40;99.90
10901;DHT22;5503;53.208;10.392;2023-02-18T11:27:56;11.30;99.90
10901;DHT22;5503;53.208;10.392;2023-02-18T11:30:26;11.30;99.90
10901;DHT22;5503;53.208;10.392;2023-02-18T11:32:59;11.50;99.90
10901;DHT22;5503;53.208;10.392;2023-02-18T11:35:31;11.50;99.90
10901;DHT22;5503;53.208;10.392;2023-02-18T11:38:01;13.10;99.90
10901;DHT22;5503;53.208;10.392;2023-02-18T11:40:30;11.50;99.90
10901;DHT22;5503;53.208;10.392;2023-02-18T11:43:05;11.50;99.90
10901;DHT22;5503;53.208;10.392;2023-02-18T11:45:34;11.60;99.90
10901;DHT22;5503;53.208;10.392;2023-02-18T11:48:06;11.50;99.90
10901;DHT22;5503;53.208;10.392;2023-02-18T11:50:34;11.40;99.90
10901;DHT22;5503;53.208;10.392;2023-02-18T11:53:25;11.60;99.90
10901;DHT22;5503;53.208;10.392;2023-02-18T11:55:54;11.60;99.90
10901;DHT22;5503;53.208;10.392;2023-02-18T11:58:23;11.70;99.90
10901;DHT22;5503;53.208;10.392;2023-02-18T12:00:54;10.50;99.90
10901;DHT22;5503;53.208;10.392;2023-02-18T12:03:27;11.30;99.90
10901;DHT22;5503;53.208;10.392;2023-02-18T12:05:59;11.20;99.90
10901;DHT22;5503;53.208;10.392;2023-02-18T12:08:28;11.30;99.90
10901;DHT22;5503;53.208;10.392;2023-02-18T12:11:01;11.30;99.90
10901;DHT22;5503;53.208;10.392;2023-02-18T12:13:33;11.30;99.90
10901;DHT22;5503;53.208;10.392;2023-02-18T12:16:10;11.40;99.90
10901;DHT22;5503;53.208;10.392;2023-02-18T12:19:04;11.30;99.90
10901;DHT22;5503;53.208;10.392;2023-02-18T12:21:44;11.20;99.90
10901;DHT22;5503;53.208;10.392;2023-02-18T12:24:22;12.00;99.90
10901;DHT22;5503;53.208;10.392;2023-02-18T12:26:57;11.30;99.90
10901;DHT22;5503;53.208;10.392;2023-02-18T12:29:44;11.30;99.90
10901;DHT22;5503;53.208;10.392;2023-02-18T12:32:25;11.20;99.90
10901;DHT22;5503;53.208;10.392;2023-02-18T12:35:08;12.30;99.90
10901;DHT22;5503;53.208;10.392;2023-02-18T12:38:01;11.30;99.90
10901;DHT22;5503;53.208;10.392;2023-02-18T12:40:44;11.20;99.90
10901;DHT22;5503;53.208;10.392;2023-02-18T12:43:21;11.20;99.90
10901;DHT22;5503;53.208;10.392;2023-02-18T12:46:15;11.10;99.90
10901;DHT22;5503;53.208;10.392;2023-02-18T12:48:59;11.20;99.90
10901;DHT22;5503;53.208;10.392;2023-02-18T12:51:37;11.20;99.90
10901;DHT22;5503;53.208;10.392;2023-02-18T12:54:28;11.10;99.90
10901;DHT22;5503;53.208;10.392;2023-02-18T12:57:16;11.00;99.90
10901;DHT22;5503;53.208;10.392;2023-02-18T13:00:16;11.10;99.90
10901;DHT22;5503;53.208;10.392;2023-02-18T13:03:15;11.10;99.90
10901;DHT22;5503;53.208;10.392;2023-02-18T13:05:53;11.20;99.90
10901;DHT22;5503;53.208;10.392;2023-02-18T13:08:30;11.20;99.90
10901;DHT22;5503;53.208;10.392;2023-02-18T13:11:09;11.00;99.90
10901;DHT22;5503;53.208;10.392;2023-02-18T13:13:41;11.00;99.90
10901;DHT22;5503;53.208;10.392;2023-02-18T13:16:16;11.10;99.90
10901;DHT22;5503;53.208;10.392;2023-02-18T13:18:50;12.90;99.90
10901;DHT22;5503;53.208;10.392;2023-02-18T13:21:22;11.10;99.90
10901;DHT22;5503;53.208;10.392;2023-02-18T13:23:52;11.00;99.90
10901;DHT22;5503;53.208;10.392;2023-02-18T13:26:21;11.00;99.90
10901;DHT22;5503;53.208;10.392;2023-02-18T13:28:54;11.10;99.90
10901;DHT22;5503;53.208;10.392;2023-02-18T13:31:33;11.00;99.90
10901;DHT22;5503;53.208;10.392;2023-02-18T13:34:07;11.10;99.90
10901;DHT22;5503;53.208;10.392;2023-02-18T13:36:54;11.00;99.90
10901;DHT22;5503;53.208;10.392;2023-02-18T13:39:25;10.80;99.90
10901;DHT22;5503;53.208;10.392;2023-02-18T13:42:11;10.80;99.90
10901;DHT22;5503;53.208;10.392;2023-02-18T13:44:39;10.80;99.90
10901;DHT22;5503;53.208;10.392;2023-02-18T13:47:38;10.70;99.90
10901;DHT22;5503;53.208;10.392;2023-02-18T13:50:41;11.20;99.90
10901;DHT22;5503;53.208;10.392;2023-02-18T13:53:22;10.80;99.90
10901;DHT22;5503;53.208;10.392;2023-02-18T13:55:54;10.90;99.90
10901;DHT22;5503;53.208;10.392;2023-02-18T13:58:26;10.90;99.90
10901;DHT22;5503;53.208;10.392;2023-02-18T14:01:00;10.80;99.90
10901;DHT22;5503;53.208;10.392;2023-02-18T14:03:33;10.80;99.90
10901;DHT22;5503;53.208;10.392;2023-02-18T14:06:14;11.70;99.90
10901;DHT22;5503;53.208;10.392;2023-02-18T14:08:41;10.70;99.90
10901;DHT22;5503;53.208;10.392;2023-02-18T14:11:33;10.80;99.90
10901;DHT22;5503;53.208;10.392;2023-02-18T14:14:30;10.90;99.90
10901;DHT22;5503;53.208;10.392;2023-02-18T14:17:30;10.90;99.90
10901;DHT22;5503;53.208;10.392;2023-02-18T14:20:30;10.70;99.90
10901;DHT22;5503;53.208;10.392;2023-02-18T14:22:59;10.70;99.90
10901;DHT22;5503;53.208;10.392;2023-02-18T14:25:34;10.70;99.90
10901;DHT22;5503;53.208;10.392;2023-02-18T14:28:15;10.70;99.90
10901;DHT22;5503;53.208;10.392;2023-02-18T14:30:52;10.70;99.90
10901;DHT22;5503;53.208;10.392;2023-02-18T14:33:20;10.90;99.90
10901;DHT22;5503;53.208;10.392;2023-02-18T14:35:52;10.80;99.90
10901;DHT22;5503;53.208;10.392;2023-02-18T14:38:41;10.70;99.90
10901;DHT22;5503;53.208;10.392;2023-02-18T14:41:34;10.90;99.90
10901;DHT22;5503;53.208;10.392;2023-02-18T14:44:25;10.90;99.90
10901;DHT22;5503;53.208;10.392;2023-02-18T14:47:13;10.70;99.90
10901;DHT22;5503;53.208;10.392;2023-02-18T14:49:43;10.60;99.90
10901;DHT22;5503;53.208;10.392;2023-02-18T14:52:16;10.50;99.90
10901;DHT22;5503;53.208;10.392;2023-02-18T14:54:47;10.30;99.90
10901;DHT22;5503;53.208;10.392;2023-02-18T14:57:16;10.20;99.90
10901;DHT22;5503;53.208;10.392;2023-02-18T14:59:45;10.10;99.90
10901;DHT22;5503;53.208;10.392;2023-02-18T15:02:17;10.20;99.90
10901;DHT22;5503;53.208;10.392;2023-02-18T15:04:45;10.30;99.90
10901;DHT22;5503;53.208;10.392;2023-02-18T15:07:12;10.20;99.90
10901;DHT22;5503;53.208;10.392;2023-02-18T15:09:46;10.10;99.90
10901;DHT22;5503;53.208;10.392;2023-02-18T15:12:16;10.20;99.90
10901;DHT22;5503;53.208;10.392;2023-02-18T15:14:45;10.20;99.90
10901;DHT22;5503;53.208;10.392;2023-02-18T15:17:16;10.30;99.90
10901;DHT22;5503;53.208;10.392;2023-02-18T15:19:48;10.40;99.90
10901;DHT22;5503;53.208;10.392;2023-02-18T15:22:17;12.20;99.90
10901;DHT22;5503;53.208;10.392;2023-02-18T15:24:47;11.60;99.90
10901;DHT22;5503;53.208;10.392;2023-02-18T15:27:17;10.40;99.90
10901;DHT22;5503;53.208;10.392;2023-02-18T15:29:49;10.40;99.90
10901;DHT22;5503;53.208;10.392;2023-02-18T15:32:18;10.30;99.90
10901;DHT22;5503;53.208;10.392;2023-02-18T15:34:48;10.20;99.90
10901;DHT22;5503;53.208;10.392;2023-02-18T15:37:16;10.20;99.90
10901;DHT22;5503;53.208;10.392;2023-02-18T15:39:46;10.30;99.90
10901;DHT22;5503;53.208;10.392;2023-02-18T15:42:24;8.20;99.90
10901;DHT22;5503;53.208;10.392;2023-02-18T15:44:55;10.30;99.90
10901;DHT22;5503;53.208;10.392;2023-02-18T15:47:22;10.40;99.90
10901;DHT22;5503;53.208;10.392;2023-02-18T15:49:52;10.40;99.90
10901;DHT22;5503;53.208;10.392;2023-02-18T15:52:25;10.30;99.90
10901;DHT22;5503;53.208;10.392;2023-02-18T15:54:54;10.20;99.90
10901;DHT22;5503;53.208;10.392;2023-02-18T15:57:26;10.10;99.90
10901;DHT22;5503;53.208;10.392;2023-02-18T15:59:54;10.10;99.90
10901;DHT22;5503;53.208;10.392;2023-02-18T16:02:23;10.30;99.90
10901;DHT22;5503;53.208;10.392;2023-02-18T16:04:54;10.20;99.90
10901;DHT22;5503;53.208;10.392;2023-02-18T16:07:24;10.00;99.90
10901;DHT22;5503;53.208;10.392;2023-02-18T16:10:08;9.70;99.90
10901;DHT22;5503;53.208;10.392;2023-02-18T16:12:37;9.70;99.90
10901;DHT22;5503;53.208;10.392;2023-02-18T16:15:05;9.60;99.90
10901;DHT22;5503;53.208;10.392;2023-02-18T16:17:33;9.60;99.90